| Date | Time | Temp. (oF) | Dew Point (oF) | Rel. Hum. (%) | Press. (in.) | Wind Dir. | Wind Speed (mph) | Hourly Rainfall (in.) |
|
|---|---|---|---|---|---|---|---|---|---|
| 1 | 12/30 | 00:00 | 19 | 8 | 64 | 30.43 | NNW | 3 | 0.00 |
| 2 | 12/29 | 23:00 | 20 | 7 | 59 | 30.42 | WNW | 3 | 0.00 |
| 3 | 12/29 | 22:00 | 21 | 8 | 57 | 30.41 | NW | 3 | 0.00 |
| 4 | 12/29 | 21:00 | 21 | 6 | 54 | 30.38 | NNW | 8 | 0.00 |
| 5 | 12/29 | 20:00 | 22 | 6 | 51 | 30.36 | NW | 9 | 0.00 |
| 6 | 12/29 | 19:00 | 23 | 6 | 48 | 30.33 | NW | 7 | 0.00 |
| 7 | 12/29 | 18:00 | 24 | 5 | 44 | 30.30 | NW | 7 | 0.00 |
| 8 | 12/29 | 17:00 | 25 | 5 | 42 | 30.27 | NNW | 10 | 0.00 |
| 9 | 12/29 | 16:00 | 27 | 6 | 41 | 30.23 | NW | 10 | 0.00 |
| 10 | 12/29 | 15:00 | 28 | 6 | 39 | 30.20 | NW | 11 | 0.00 |
| 11 | 12/29 | 14:00 | 28 | 5 | 38 | 30.18 | NW | 10 | 0.00 |
| 12 | 12/29 | 13:00 | 27 | 5 | 40 | 30.16 | NW | 18 | 0.00 |
| 13 | 12/29 | 12:00 | 26 | 4 | 39 | 30.16 | N | 18 | 0.00 |
| 14 | 12/29 | 11:00 | 26 | 5 | 41 | 30.15 | NNW | 15 | 0.00 |
| 15 | 12/29 | 10:00 | 25 | 4 | 41 | 30.13 | NNW | 12 | 0.00 |
| 16 | 12/29 | 09:00 | 25 | 6 | 44 | 30.11 | NNW | 10 | 0.00 |
| 17 | 12/29 | 08:00 | 24 | 6 | 47 | 30.06 | NNW | 15 | 0.00 |
| 18 | 12/29 | 07:00 | 25 | 12 | 58 | 30.01 | NW | 10 | 0.00 |
| 19 | 12/29 | 06:00 | 26 | 16 | 67 | 29.97 | NNW | 10 | 0.00 |
| 20 | 12/29 | 05:00 | 28 | 12 | 51 | 29.92 | NW | 22 | 0.00 |
| 21 | 12/29 | 04:00 | 28 | 10 | 47 | 29.89 | NW | 23 | 0.00 |
| 22 | 12/29 | 03:00 | 29 | 11 | 48 | 29.86 | NNW | 20 | 0.00 |
| 23 | 12/29 | 02:00 | 30 | 14 | 51 | 29.81 | NNW | 12 | 0.00 |
| 24 | 12/29 | 01:00 | 31 | 20 | 66 | 29.78 | NW | 10 | 0.00 |